Time;durP1;ratioP1;P1;durP2;ratioP2;P2;SDS_P1;SDS_P2;PMS_P1;PMS_P2;Temp;Humidity;BMP_temperature;BMP_pressure;BME280_temperature;BME280_humidity;BME280_pressure;Samples;Min_cycle;Max_cycle;Signal;HPM_P1;HPM_P2
2022/08/27 04:02:03;;;;;;;82.50;47.93;;;19.50;99.90;;;;;;5262244;23;20866;-75
2022/08/27 04:04:31;;;;;;;76.23;48.57;;;19.40;99.90;;;;;;4985888;28;20832;-76
2022/08/27 04:06:58;;;;;;;79.67;49.97;;;19.40;99.90;;;;;;4986079;28;20947;-77
2022/08/27 04:09:25;;;;;;;83.53;48.60;;;19.50;99.90;;;;;;4986140;28;21035;-76
2022/08/27 04:11:51;;;;;;;81.73;48.53;;;19.40;99.90;;;;;;4986576;28;20478;-76
2022/08/27 04:14:19;;;;;;;75.53;48.03;;;19.40;99.90;;;;;;4985908;28;20460;-76
2022/08/27 04:16:46;;;;;;;88.23;51.50;;;19.40;99.90;;;;;;4986157;28;20459;-76
2022/08/27 04:19:15;;;;;;;75.63;47.27;;;19.40;99.90;;;;;;4986232;28;20466;-79
2022/08/27 04:21:42;;;;;;;77.93;48.17;;;19.30;99.90;;;;;;4986320;28;20602;-79
2022/08/27 04:24:10;;;;;;;79.70;46.97;;;19.40;99.90;;;;;;4985847;28;20833;-77
2022/08/27 04:26:41;;;;;;;84.23;49.47;;;19.30;99.90;;;;;;4986078;28;20840;-75
2022/08/27 04:29:08;;;;;;;83.37;48.93;;;19.30;99.90;;;;;;4985558;28;20971;-76
2022/08/27 04:31:35;;;;;;;75.10;47.10;;;19.30;99.90;;;;;;4985875;28;20507;-77
2022/08/27 04:34:01;;;;;;;83.77;49.67;;;19.30;99.90;;;;;;4985638;28;20467;-76
2022/08/27 04:36:30;;;;;;;77.03;45.33;;;19.30;99.90;;;;;;4985921;28;20936;-76
2022/08/27 04:38:56;;;;;;;80.93;49.20;;;19.30;99.90;;;;;;4986318;28;20460;-76
2022/08/27 04:41:25;;;;;;;78.30;48.20;;;19.30;99.90;;;;;;4985689;28;20483;-76
2022/08/27 04:43:55;;;;;;;74.00;46.13;;;19.30;99.90;;;;;;4985641;28;20464;-76
2022/08/27 04:46:23;;;;;;;74.40;45.33;;;19.30;99.90;;;;;;4985274;28;21030;-76
2022/08/27 04:48:50;;;;;;;78.93;45.63;;;19.20;99.90;;;;;;4985951;28;20491;-76
2022/08/27 04:51:17;;;;;;;74.20;44.70;;;19.20;99.90;;;;;;4985982;28;20487;-77
2022/08/27 04:53:45;;;;;;;77.50;45.27;;;19.20;99.90;;;;;;4985787;28;20464;-76
2022/08/27 04:56:14;;;;;;;65.50;43.10;;;19.20;99.90;;;;;;4985112;28;20825;-76
2022/08/27 04:58:42;;;;;;;71.70;44.00;;;19.30;99.90;;;;;;4985597;28;20464;-76
2022/08/27 05:01:09;;;;;;;63.90;41.80;;;19.30;99.90;;;;;;4985555;28;20797;-79
2022/08/27 05:03:36;;;;;;;80.23;44.80;;;19.20;99.90;;;;;;4985806;28;20475;-76
2022/08/27 05:06:06;;;;;;;69.53;42.80;;;19.30;99.90;;;;;;4985364;28;20510;-76
2022/08/27 05:08:33;;;;;;;71.07;43.33;;;19.30;99.90;;;;;;4985693;28;20463;-76
2022/08/27 05:11:01;;;;;;;68.10;43.80;;;19.30;99.90;;;;;;4985648;28;20491;-76
2022/08/27 05:13:29;;;;;;;73.10;43.83;;;19.30;99.90;;;;;;4985078;28;20459;-76
2022/08/27 05:16:00;;;;;;;70.90;44.60;;;19.30;99.90;;;;;;4984997;28;20460;-79
2022/08/27 05:18:27;;;;;;;75.33;44.00;;;19.20;99.90;;;;;;4985591;28;20820;-78
2022/08/27 05:20:54;;;;;;;71.10;43.10;;;19.20;99.90;;;;;;4985482;28;20484;-77
2022/08/27 05:23:21;;;;;;;82.00;44.37;;;19.20;99.90;;;;;;4985513;28;20474;-76
2022/08/27 05:25:49;;;;;;;75.37;45.17;;;19.20;99.90;;;;;;4984776;28;20467;-78
2022/08/27 05:28:20;;;;;;;74.47;45.40;;;19.20;99.90;;;;;;4985434;28;20463;-77
2022/08/27 05:30:50;;;;;;;75.43;44.13;;;19.20;99.90;;;;;;4985440;28;20844;-76
2022/08/27 05:33:19;;;;;;;72.70;45.20;;;19.20;99.90;;;;;;4985427;28;20451;-76
2022/08/27 05:35:49;;;;;;;69.80;43.20;;;19.30;99.90;;;;;;4984825;28;20658;-76
2022/08/27 05:38:17;;;;;;;70.27;46.10;;;19.30;99.90;;;;;;4985171;28;20463;-76
2022/08/27 05:40:46;;;;;;;79.10;45.80;;;19.30;99.90;;;;;;4987090;28;20486;-76
2022/08/27 05:43:14;;;;;;;75.60;46.33;;;19.30;99.90;;;;;;4989271;28;20808;-76
2022/08/27 05:45:44;;;;;;;75.33;44.93;;;19.30;99.90;;;;;;4988926;28;20467;-77
2022/08/27 05:48:11;;;;;;;79.07;46.27;;;19.30;99.90;;;;;;4990557;28;20481;-77
2022/08/27 05:50:39;;;;;;;74.63;46.63;;;19.30;99.90;;;;;;4989786;28;20507;-76
2022/08/27 05:53:06;;;;;;;72.70;44.80;;;19.30;99.90;;;;;;4989780;28;20482;-77
2022/08/27 05:55:38;;;;;;;70.60;43.37;;;19.30;99.90;;;;;;4989479;28;20467;-75
2022/08/27 05:58:05;;;;;;;72.03;44.30;;;19.40;99.90;;;;;;4990177;28;20463;-76
2022/08/27 06:03:18;;;;;;;79.60;46.60;;;19.30;99.90;;;;;;4989079;28;20434;-68
2022/08/27 06:05:44;;;;;;;74.27;45.87;;;19.30;99.90;;;;;;4988945;28;20482;-68
2022/08/27 06:08:12;;;;;;;86.50;48.70;;;19.30;99.90;;;;;;4989108;28;20554;-68
2022/08/27 06:10:41;;;;;;;82.23;46.90;;;19.30;99.90;;;;;;4989046;28;20621;-69
2022/08/27 06:13:08;;;;;;;84.00;48.37;;;19.30;99.90;;;;;;4989075;28;20566;-69
2022/08/27 06:15:35;;;;;;;85.13;47.23;;;19.30;99.90;;;;;;4988561;28;20479;-68
2022/08/27 06:18:04;;;;;;;72.93;45.27;;;19.40;99.90;;;;;;4988514;28;20456;-68
2022/08/27 06:20:32;;;;;;;82.13;47.00;;;19.40;99.90;;;;;;4988422;28;21108;-72
2022/08/27 06:22:59;;;;;;;82.50;47.13;;;19.40;99.90;;;;;;4988733;28;20455;-67
2022/08/27 06:25:31;;;;;;;76.20;46.63;;;19.30;99.90;;;;;;4988001;28;20558;-67
2022/08/27 06:27:57;;;;;;;76.23;45.63;;;19.30;99.90;;;;;;4988603;28;20853;-67
2022/08/27 06:30:24;;;;;;;73.97;46.57;;;19.30;99.90;;;;;;4988795;28;20487;-67
2022/08/27 06:32:51;;;;;;;76.83;47.00;;;19.40;99.90;;;;;;4988609;28;20470;-67
2022/08/27 06:35:18;;;;;;;85.60;50.17;;;19.40;99.90;;;;;;4987820;28;20463;-67
2022/08/27 06:37:46;;;;;;;83.73;49.87;;;19.40;99.90;;;;;;4988547;28;20464;-67
2022/08/27 06:40:14;;;;;;;72.77;46.70;;;19.50;99.90;;;;;;4988760;28;20465;-67
2022/08/27 06:42:41;;;;;;;82.70;50.03;;;19.50;99.90;;;;;;4988525;28;20543;-67
2022/08/27 06:45:09;;;;;;;79.90;48.27;;;19.50;99.90;;;;;;4987705;28;20514;-67
2022/08/27 06:47:36;;;;;;;90.40;51.07;;;19.50;99.90;;;;;;4988560;28;20535;-67
2022/08/27 06:50:03;;;;;;;83.87;50.00;;;19.50;99.90;;;;;;4988503;28;20490;-67
2022/08/27 06:52:30;;;;;;;80.13;49.87;;;19.60;99.90;;;;;;4987999;28;20950;-67
2022/08/27 06:54:58;;;;;;;83.13;51.57;;;19.60;99.90;;;;;;4987500;28;20464;-67
2022/08/27 06:57:25;;;;;;;75.87;48.27;;;19.60;99.90;;;;;;4988028;28;20464;-67
2022/08/27 06:59:52;;;;;;;79.97;49.90;;;19.60;99.90;;;;;;4988406;28;20466;-67
2022/08/27 07:02:19;;;;;;;90.40;50.53;;;19.70;99.90;;;;;;4988045;28;20523;-68
2022/08/27 07:04:46;;;;;;;87.27;50.43;;;19.70;99.90;;;;;;4987540;28;20459;-68
2022/08/27 07:07:13;;;;;;;82.23;49.57;;;19.70;99.90;;;;;;4988030;28;20559;-68
2022/08/27 07:09:40;;;;;;;74.47;48.53;;;19.70;99.90;;;;;;4988400;28;21004;-68
2022/08/27 07:12:09;;;;;;;84.17;53.90;;;19.70;99.90;;;;;;4987697;28;21330;-70
2022/08/27 07:14:35;;;;;;;71.90;47.57;;;19.70;99.90;;;;;;4987508;28;20459;-68
2022/08/27 07:17:05;;;;;;;80.67;49.70;;;19.70;99.90;;;;;;4987847;28;20561;-68
2022/08/27 07:19:32;;;;;;;85.43;49.63;;;19.70;99.90;;;;;;4987725;28;20460;-70
2022/08/27 07:21:59;;;;;;;80.60;49.23;;;19.70;99.90;;;;;;4987823;28;20917;-67
2022/08/27 07:24:26;;;;;;;80.60;50.90;;;19.80;99.90;;;;;;4985677;28;20458;-67
2022/08/27 07:26:55;;;;;;;72.10;47.03;;;19.80;99.90;;;;;;4986346;28;20584;-66
2022/08/27 07:29:24;;;;;;;74.20;50.03;;;19.80;99.90;;;;;;4985820;28;20452;-71
2022/08/27 07:31:50;;;;;;;80.17;49.40;;;19.90;99.90;;;;;;4987460;28;21313;-70
2022/08/27 07:34:17;;;;;;;72.87;48.37;;;19.80;99.90;;;;;;4986881;28;20463;-76
2022/08/27 07:36:44;;;;;;;73.80;49.30;;;19.80;99.90;;;;;;4987114;28;20474;-71
2022/08/27 07:39:12;;;;;;;89.57;47.97;;;19.90;99.90;;;;;;4986978;28;20459;-71
2022/08/27 07:44:26;;;;;;;89.90;50.20;;;19.90;99.90;;;;;;4986289;28;20431;-71
2022/08/27 07:46:57;;;;;;;92.87;53.17;;;19.90;99.90;;;;;;4987340;28;20464;-71
2022/08/27 07:49:28;;;;;;;83.83;50.10;;;19.90;99.90;;;;;;4986976;28;20460;-71
2022/08/27 07:51:55;;;;;;;75.23;50.37;;;19.90;99.90;;;;;;4987358;28;20483;-70
2022/08/27 07:54:22;;;;;;;82.83;50.23;;;19.90;99.90;;;;;;4986334;28;20459;-70
2022/08/27 07:56:49;;;;;;;74.00;46.70;;;19.90;99.90;;;;;;4987062;28;20558;-71
2022/08/27 07:59:16;;;;;;;79.20;50.13;;;20.00;99.90;;;;;;4986786;28;20479;-70
2022/08/27 08:01:47;;;;;;;84.87;51.07;;;20.00;99.90;;;;;;4986766;28;20498;-71
2022/08/27 08:04:16;;;;;;;82.13;52.67;;;19.90;99.90;;;;;;4985503;28;20464;-71
2022/08/27 08:06:42;;;;;;;88.37;51.10;;;19.90;99.90;;;;;;4987206;28;20466;-70
2022/08/27 08:09:09;;;;;;;80.63;50.10;;;19.90;99.90;;;;;;4986909;28;20462;-70
2022/08/27 08:11:36;;;;;;;86.30;50.70;;;19.90;99.90;;;;;;4986325;28;20979;-71
2022/08/27 08:14:03;;;;;;;81.40;50.20;;;19.90;99.90;;;;;;4986417;28;20455;-70
2022/08/27 08:16:30;;;;;;;76.97;48.40;;;20.00;99.90;;;;;;4986607;28;20551;-69
2022/08/27 08:18:58;;;;;;;81.68;54.08;;;20.00;99.90;;;;;;4985671;28;20809;-69
2022/08/27 08:21:27;;;;;;;74.77;48.83;;;20.10;99.90;;;;;;4986240;28;20239;-69
2022/08/27 08:23:54;;;;;;;78.53;49.50;;;20.10;99.90;;;;;;4986498;28;21317;-70
2022/08/27 08:26:20;;;;;;;81.53;49.73;;;20.20;99.90;;;;;;4986106;28;20455;-70
2022/08/27 08:28:47;;;;;;;82.57;47.90;;;20.20;99.90;;;;;;4986688;28;20451;-70
2022/08/27 08:31:14;;;;;;;73.20;46.17;;;20.20;99.90;;;;;;4985692;28;20503;-69
2022/08/27 08:33:41;;;;;;;80.03;44.93;;;20.20;99.90;;;;;;4986648;28;20467;-69
2022/08/27 08:36:11;;;;;;;70.53;45.33;;;20.30;99.90;;;;;;4985449;28;20472;-70
2022/08/27 08:38:40;;;;;;;73.37;46.90;;;20.30;99.90;;;;;;4986544;28;20491;-70
2022/08/27 08:41:23;;;;;;;67.90;42.70;;;20.30;99.90;;;;;;4986509;28;20521;-70
2022/08/27 08:43:50;;;;;;;57.80;39.27;;;20.30;99.90;;;;;;4986062;28;20459;-70
2022/08/27 08:46:24;;;;;;;56.07;37.83;;;20.30;99.90;;;;;;4985854;28;20463;-69
2022/08/27 08:48:55;;;;;;;51.30;35.43;;;20.30;99.90;;;;;;4986417;28;20553;-69
2022/08/27 08:51:30;;;;;;;49.73;35.60;;;20.30;99.90;;;;;;4986075;28;20581;-70
2022/08/27 08:54:02;;;;;;;47.93;35.00;;;20.30;99.90;;;;;;4986164;28;20462;-70
2022/08/27 08:56:36;;;;;;;58.93;36.23;;;20.30;99.90;;;;;;4985953;28;20444;-70
2022/08/27 08:59:08;;;;;;;51.53;35.63;;;20.40;99.90;;;;;;4986363;28;20467;-70
2022/08/27 09:01:35;;;;;;;43.77;34.13;;;20.40;99.90;;;;;;4985967;28;20505;-70
2022/08/27 09:04:05;;;;;;;45.27;33.60;;;20.40;99.90;;;;;;4985584;28;20469;-70
2022/08/27 09:06:40;;;;;;;49.30;35.70;;;20.40;99.90;;;;;;4985919;28;20539;-70
2022/08/27 09:09:19;;;;;;;46.13;34.80;;;20.40;99.90;;;;;;4985890;28;20451;-70
2022/08/27 09:11:55;;;;;;;45.80;33.90;;;20.50;99.90;;;;;;4984992;28;20496;-70
2022/08/27 09:14:32;;;;;;;40.40;31.20;;;20.50;99.90;;;;;;4987159;28;20467;-70
2022/08/27 09:17:00;;;;;;;41.10;32.10;;;20.50;99.90;;;;;;4990096;28;20465;-70
2022/08/27 09:19:28;;;;;;;37.40;28.00;;;20.50;99.90;;;;;;4989564;28;20455;-69
2022/08/27 09:22:02;;;;;;;39.27;29.90;;;20.50;99.90;;;;;;4989043;28;21017;-69
2022/08/27 09:24:40;;;;;;;39.07;29.53;;;20.60;99.90;;;;;;4988160;28;20567;-70
2022/08/27 09:27:11;;;;;;;38.80;29.50;;;20.60;99.90;;;;;;4990079;28;20873;-69
2022/08/27 09:29:48;;;;;;;48.07;35.03;;;20.60;99.90;;;;;;4987144;28;20539;-69
2022/08/27 09:32:16;;;;;;;45.90;35.90;;;20.60;99.90;;;;;;4989854;28;20495;-69
2022/08/27 09:34:47;;;;;;;54.53;36.17;;;20.60;99.90;;;;;;4987491;28;20486;-69
2022/08/27 09:37:23;;;;;;;56.63;37.00;;;20.60;99.90;;;;;;4989692;28;20444;-73
2022/08/27 09:39:56;;;;;;;51.43;36.47;;;20.60;99.90;;;;;;4989629;28;20950;-70
2022/08/27 09:42:29;;;;;;;46.63;36.97;;;20.60;99.90;;;;;;4987372;28;20476;-69
2022/08/27 09:44:56;;;;;;;51.37;37.07;;;20.60;99.90;;;;;;4988351;28;20459;-69
2022/08/27 09:47:24;;;;;;;45.63;35.20;;;20.60;99.90;;;;;;4989429;28;20456;-69
2022/08/27 09:50:02;;;;;;;46.00;35.13;;;20.70;99.90;;;;;;4989608;28;20459;-69
2022/08/27 09:52:35;;;;;;;45.80;35.93;;;20.70;99.90;;;;;;4989069;28;20479;-70
2022/08/27 09:55:05;;;;;;;50.80;37.90;;;20.70;99.90;;;;;;4988837;28;20471;-71
2022/08/27 09:57:35;;;;;;;47.30;35.77;;;20.80;99.90;;;;;;4989630;28;20463;-69
2022/08/27 10:00:08;;;;;;;37.30;29.60;;;20.80;99.90;;;;;;4989161;28;20463;-69
2022/08/27 10:02:35;;;;;;;39.10;32.83;;;20.80;99.90;;;;;;4988788;28;20542;-70
2022/08/27 10:05:13;;;;;;;42.03;32.43;;;20.80;99.90;;;;;;4988067;28;20458;-70
2022/08/27 10:07:51;;;;;;;41.20;31.60;;;20.90;99.90;;;;;;4989352;28;20444;-70
2022/08/27 10:10:24;;;;;;;40.63;30.80;;;20.90;99.90;;;;;;4987777;28;20451;-70
2022/08/27 10:12:57;;;;;;;33.00;27.30;;;20.90;99.90;;;;;;4988914;28;20459;-70
2022/08/27 10:15:29;;;;;;;37.40;26.37;;;20.90;99.90;;;;;;4987798;28;20947;-70
2022/08/27 10:18:07;;;;;;;29.53;24.33;;;20.90;99.90;;;;;;4988997;28;20475;-70
2022/08/27 10:20:41;;;;;;;32.95;26.65;;;21.00;99.90;;;;;;4986917;28;20444;-69
2022/08/27 10:23:19;;;;;;;30.67;22.67;;;21.20;99.90;;;;;;4988798;28;20216;-70
2022/08/27 10:25:57;;;;;;;29.97;22.93;;;21.20;99.90;;;;;;4987182;28;20451;-70
2022/08/27 10:28:37;;;;;;;26.87;22.07;;;21.30;99.90;;;;;;4988831;28;20539;-70
2022/08/27 10:31:21;;;;;;;27.67;22.17;;;21.30;99.90;;;;;;4990978;28;20499;-81
2022/08/27 10:33:59;;;;;;;27.07;22.30;;;21.30;99.90;;;;;;4991451;28;20547;-82
2022/08/27 10:36:35;;;;;;;32.93;24.30;;;21.30;99.90;;;;;;4991743;28;20447;-81
2022/08/27 10:39:12;;;;;;;25.67;22.73;;;21.40;99.90;;;;;;4992950;28;20502;-81
2022/08/27 10:41:44;;;;;;;27.90;22.30;;;21.40;99.90;;;;;;4993145;28;20476;-82
2022/08/27 10:44:40;;;;;;;25.43;19.37;;;21.40;99.90;;;;;;4992127;28;20446;-81
2022/08/27 10:47:18;;;;;;;24.90;19.50;;;21.40;99.90;;;;;;4993029;28;20530;-81
2022/08/27 10:49:55;;;;;;;24.20;19.73;;;21.40;99.90;;;;;;4993345;28;20473;-81
2022/08/27 10:52:27;;;;;;;25.83;19.60;;;21.50;99.90;;;;;;4992501;28;20495;-81
2022/08/27 10:55:00;;;;;;;21.27;18.90;;;21.50;99.90;;;;;;4992346;28;20474;-81
2022/08/27 10:57:45;;;;;;;19.47;17.30;;;21.60;99.90;;;;;;4992589;28;20450;-81
2022/08/27 11:00:16;;;;;;;19.87;17.60;;;21.60;99.90;;;;;;4992508;28;20486;-81
2022/08/27 11:02:47;;;;;;;23.27;19.70;;;21.60;99.90;;;;;;4994993;28;20455;-81
2022/08/27 11:05:19;;;;;;;18.53;16.50;;;21.60;99.90;;;;;;4995484;28;20474;-81
2022/08/27 11:07:51;;;;;;;22.83;17.13;;;21.60;99.90;;;;;;4996695;28;20440;-80
2022/08/27 11:10:26;;;;;;;24.13;16.77;;;21.60;99.90;;;;;;4997749;28;20472;-81
2022/08/27 11:12:58;;;;;;;20.17;17.30;;;21.70;99.90;;;;;;4994135;28;20489;-76
2022/08/27 11:15:30;;;;;;;19.50;15.70;;;21.70;99.90;;;;;;4987298;28;20542;-75
2022/08/27 11:18:02;;;;;;;18.93;16.10;;;21.70;99.90;;;;;;4986284;28;20514;-75
2022/08/27 11:20:34;;;;;;;24.00;18.57;;;21.80;99.90;;;;;;4987938;28;20448;-75
2022/08/27 11:23:05;;;;;;;23.77;18.03;;;21.80;99.90;;;;;;4987688;28;21288;-76
2022/08/27 11:25:45;;;;;;;22.50;17.50;;;21.80;99.90;;;;;;4987765;28;20459;-76
2022/08/27 11:28:14;;;;;;;19.93;17.43;;;21.80;99.90;;;;;;4986187;28;20550;-76
2022/08/27 11:30:55;;;;;;;22.23;18.37;;;21.80;99.90;;;;;;4987480;28;20488;-75
2022/08/27 11:33:27;;;;;;;25.50;18.87;;;21.80;99.90;;;;;;4987563;28;20939;-76
2022/08/27 11:36:18;;;;;;;19.77;16.97;;;21.80;99.90;;;;;;4986562;28;20467;-76
2022/08/27 11:38:54;;;;;;;22.73;18.63;;;21.80;99.90;;;;;;4987064;28;20459;-76
2022/08/27 11:42:00;;;;;;;21.67;16.77;;;21.80;99.90;;;;;;4987536;28;20520;-76
2022/08/27 11:44:29;;;;;;;23.80;19.80;;;21.80;99.90;;;;;;4969307;28;20463;-76
2022/08/27 11:46:58;;;;;;;34.43;27.83;;;21.80;99.90;;;;;;4995211;28;20470;-80
2022/08/27 11:49:28;;;;;;;36.20;28.37;;;21.80;99.90;;;;;;5002498;28;20531;-81
2022/08/27 11:52:01;;;;;;;38.90;31.23;;;21.80;99.90;;;;;;5003131;28;20499;-81
2022/08/27 11:54:30;;;;;;;37.50;29.50;;;21.80;99.90;;;;;;5003556;28;20542;-79
2022/08/27 11:56:57;;;;;;;39.37;31.27;;;21.90;99.90;;;;;;5003209;28;20472;-81
2022/08/27 11:59:32;;;;;;;37.83;28.60;;;21.90;99.90;;;;;;5005575;28;20458;-81
2022/08/27 12:02:19;;;;;;;26.43;21.80;;;21.90;99.90;;;;;;5007348;28;20478;-81
2022/08/27 12:04:46;;;;;;;28.40;21.10;;;21.90;99.90;;;;;;5010556;28;20440;-81
2022/08/27 12:07:28;;;;;;;23.73;17.90;;;22.00;99.90;;;;;;5008424;28;20519;-81
2022/08/27 12:10:07;;;;;;;24.07;17.87;;;22.00;99.90;;;;;;5002089;28;20455;-81
2022/08/27 12:12:41;;;;;;;23.83;18.93;;;22.00;99.90;;;;;;4997555;28;20506;-81
2022/08/27 12:15:17;;;;;;;25.33;19.10;;;22.00;99.90;;;;;;4998575;28;20466;-81
2022/08/27 12:17:54;;;;;;;25.77;18.30;;;22.00;99.90;;;;;;4995981;28;20455;-81
2022/08/27 12:20:29;;;;;;;26.20;19.53;;;22.00;99.90;;;;;;4999390;28;20448;-79
2022/08/27 12:25:57;;;;;;;33.90;26.57;;;22.00;99.90;;;;;;5000209;28;20439;-80
2022/08/27 12:28:27;;;;;;;30.43;26.97;;;22.10;99.90;;;;;;4998539;28;20452;-80
2022/08/27 12:30:57;;;;;;;26.07;20.57;;;22.10;99.90;;;;;;4998831;28;20503;-80
2022/08/27 12:33:33;;;;;;;27.20;20.40;;;22.10;99.90;;;;;;4998553;28;20471;-81
2022/08/27 12:36:08;;;;;;;23.60;21.13;;;22.10;99.90;;;;;;4995160;28;20461;-80
2022/08/27 12:38:43;;;;;;;23.13;20.20;;;22.20;99.90;;;;;;4998875;28;20511;-80
2022/08/27 12:41:11;;;;;;;24.27;19.97;;;22.10;99.90;;;;;;5000039;28;20538;-80
2022/08/27 12:43:42;;;;;;;34.00;21.13;;;22.10;99.90;;;;;;4998469;28;20463;-81
2022/08/27 12:46:15;;;;;;;22.67;19.63;;;22.10;99.90;;;;;;5001329;28;20468;-80
2022/08/27 12:48:44;;;;;;;22.83;19.20;;;22.20;99.90;;;;;;5000798;28;20448;-80
2022/08/27 12:51:14;;;;;;;25.37;19.47;;;22.20;99.90;;;;;;4998427;28;20575;-81
2022/08/27 12:53:44;;;;;;;22.63;19.37;;;22.20;99.90;;;;;;4995153;28;20491;-80
2022/08/27 12:56:31;;;;;;;25.13;20.67;;;22.30;99.90;;;;;;4995474;28;20523;-78
2022/08/27 12:59:08;;;;;;;32.70;21.83;;;22.20;99.90;;;;;;4986566;28;20444;-75
2022/08/27 13:01:52;;;;;;;27.13;21.20;;;22.30;99.90;;;;;;4986009;28;20514;-77
2022/08/27 13:04:24;;;;;;;27.20;21.63;;;22.10;99.90;;;;;;4987206;28;20452;-79
2022/08/27 13:06:54;;;;;;;33.03;25.07;;;22.00;99.90;;;;;;4993165;28;20448;-79
2022/08/27 13:09:27;;;;;;;35.50;26.27;;;21.80;99.90;;;;;;4990278;28;20459;-78
2022/08/27 13:11:55;;;;;;;32.17;25.93;;;21.80;99.90;;;;;;4988924;28;20502;-78
2022/08/27 13:14:24;;;;;;;57.17;28.37;;;21.80;99.90;;;;;;4986274;28;20949;-77
2022/08/27 13:16:58;;;;;;;36.53;27.13;;;21.80;99.90;;;;;;4986163;28;21298;-78
2022/08/27 13:19:29;;;;;;;24.40;18.97;;;21.80;99.90;;;;;;4991747;28;20538;-78
2022/08/27 13:21:56;;;;;;;26.13;21.60;;;21.70;99.90;;;;;;4998855;28;20479;-79
2022/08/27 13:24:29;;;;;;;31.33;24.50;;;21.80;99.90;;;;;;4999298;28;20472;-79
2022/08/27 13:26:57;;;;;;;37.67;29.33;;;21.80;99.90;;;;;;5000148;28;20480;-79
2022/08/27 13:29:24;;;;;;;39.50;27.60;;;21.80;99.90;;;;;;5001600;28;20463;-78
2022/08/27 13:31:53;;;;;;;33.43;24.67;;;21.80;99.90;;;;;;5001354;28;20504;-79
2022/08/27 13:34:24;;;;;;;24.63;19.20;;;21.80;99.90;;;;;;5000420;28;20503;-79
2022/08/27 13:36:58;;;;;;;23.23;17.73;;;21.70;99.90;;;;;;5001888;28;20833;-79
2022/08/27 13:39:25;;;;;;;19.47;15.07;;;21.70;99.90;;;;;;5002366;28;20459;-79
2022/08/27 13:41:58;;;;;;;17.83;15.17;;;21.70;99.90;;;;;;5001650;28;20546;-79
2022/08/27 13:44:31;;;;;;;21.77;17.77;;;21.70;99.90;;;;;;5000176;28;20460;-78
2022/08/27 13:47:02;;;;;;;17.17;15.47;;;21.60;99.90;;;;;;5000722;28;21270;-80
2022/08/27 13:49:33;;;;;;;19.73;16.10;;;21.50;99.90;;;;;;4999612;28;20428;-79
2022/08/27 13:52:15;;;;;;;18.30;16.10;;;21.40;99.90;;;;;;4997347;28;20505;-79
2022/08/27 13:54:43;;;;;;;21.43;17.17;;;21.40;99.90;;;;;;4995465;28;20464;-79
2022/08/27 13:57:12;;;;;;;16.83;14.33;;;21.30;99.90;;;;;;4995863;28;20531;-79
2022/08/27 13:59:40;;;;;;;24.27;19.17;;;21.20;99.90;;;;;;4998428;28;20499;-79
2022/08/27 14:02:21;;;;;;;24.20;18.93;;;21.10;99.90;;;;;;4996659;28;21003;-80
2022/08/27 14:05:03;;;;;;;19.50;17.47;;;21.10;99.90;;;;;;4995735;28;20455;-80
2022/08/27 14:07:34;;;;;;;22.30;18.27;;;21.10;99.90;;;;;;4991193;28;20567;-78
2022/08/27 14:10:05;;;;;;;27.53;19.73;;;21.10;99.90;;;;;;4997852;28;20455;-79
2022/08/27 14:12:35;;;;;;;24.33;17.90;;;21.10;99.90;;;;;;4996033;28;20495;-79
2022/08/27 14:15:22;;;;;;;22.70;19.20;;;21.10;99.90;;;;;;4996806;28;20459;-80
2022/08/27 14:17:51;;;;;;;24.33;20.60;;;21.10;99.90;;;;;;4996664;28;20455;-78
2022/08/27 14:20:19;;;;;;;22.33;18.93;;;21.20;99.90;;;;;;4998583;28;20468;-79
2022/08/27 14:22:47;;;;;;;27.67;20.10;;;21.30;99.90;;;;;;4998578;28;20457;-80
2022/08/27 14:25:15;;;;;;;26.47;20.77;;;21.30;99.90;;;;;;4997126;28;20474;-79
2022/08/27 14:27:42;;;;;;;26.50;20.27;;;21.30;99.90;;;;;;4996353;28;20459;-79
2022/08/27 14:30:12;;;;;;;21.40;18.70;;;21.30;99.90;;;;;;4996852;28;20455;-79
2022/08/27 14:32:40;;;;;;;18.90;14.87;;;21.30;99.90;;;;;;4995969;28;20578;-80
2022/08/27 14:35:10;;;;;;;17.90;14.30;;;21.10;99.90;;;;;;4995625;28;20502;-80
2022/08/27 14:37:39;;;;;;;16.80;13.07;;;21.10;99.90;;;;;;4996246;28;20455;-80
2022/08/27 14:40:07;;;;;;;19.40;16.07;;;21.10;99.90;;;;;;4995981;28;20467;-80
2022/08/27 14:42:34;;;;;;;20.60;17.07;;;21.10;99.90;;;;;;4995837;28;20486;-80
2022/08/27 14:45:01;;;;;;;20.77;15.10;;;21.20;99.90;;;;;;4995252;28;20460;-80
2022/08/27 14:47:30;;;;;;;18.60;14.77;;;21.20;99.90;;;;;;4995464;28;20458;-80
2022/08/27 14:49:57;;;;;;;17.33;14.80;;;21.20;99.90;;;;;;4994487;28;20464;-79
2022/08/27 14:52:25;;;;;;;23.70;17.57;;;21.20;99.90;;;;;;4993479;28;20504;-78
2022/08/27 14:54:52;;;;;;;23.27;18.10;;;21.30;99.90;;;;;;4993727;28;20459;-80
2022/08/27 14:57:19;;;;;;;18.30;16.33;;;21.40;99.90;;;;;;4994502;28;21303;-80
2022/08/27 14:59:46;;;;;;;22.27;16.57;;;21.40;99.90;;;;;;4994133;28;20518;-80
2022/08/27 15:02:14;;;;;;;20.47;17.23;;;21.50;99.90;;;;;;4993840;28;20521;-78
2022/08/27 15:04:41;;;;;;;19.03;16.40;;;21.50;99.90;;;;;;4993149;28;20976;-78
2022/08/27 15:07:08;;;;;;;18.50;16.50;;;21.50;99.90;;;;;;4993853;28;20531;-80
2022/08/27 15:09:39;;;;;;;17.20;14.53;;;21.60;99.90;;;;;;4994210;28;20464;-80
2022/08/27 15:12:06;;;;;;;22.00;17.80;;;21.60;99.90;;;;;;4993470;28;20495;-80
2022/08/27 15:14:36;;;;;;;24.00;19.47;;;21.80;99.90;;;;;;4992342;28;20856;-80
2022/08/27 15:17:04;;;;;;;21.30;17.03;;;21.90;99.90;;;;;;4992624;28;20460;-80
2022/08/27 15:19:31;;;;;;;25.53;20.80;;;21.90;99.90;;;;;;4991676;28;21081;-79
2022/08/27 15:22:04;;;;;;;21.27;18.50;;;22.00;99.90;;;;;;4991302;28;20490;-79
2022/08/27 15:24:41;;;;;;;27.87;19.77;;;22.00;99.90;;;;;;4990553;28;20463;-77
2022/08/27 15:27:08;;;;;;;26.50;21.90;;;22.00;99.90;;;;;;4991955;28;20451;-80
2022/08/27 15:29:35;;;;;;;33.80;23.30;;;22.00;99.90;;;;;;4991396;28;20462;-80
2022/08/27 15:32:02;;;;;;;31.70;21.60;;;22.00;99.90;;;;;;4990731;28;20486;-78
2022/08/27 15:34:32;;;;;;;29.27;22.00;;;22.00;99.90;;;;;;4991125;28;20464;-80
2022/08/27 15:36:58;;;;;;;31.30;24.70;;;22.10;99.90;;;;;;4992457;28;20468;-84
2022/08/27 15:39:25;;;;;;;35.17;26.30;;;22.10;99.90;;;;;;4990143;28;21436;-84
2022/08/27 15:41:53;;;;;;;33.57;27.60;;;22.10;99.90;;;;;;4990665;28;20554;-82
2022/08/27 15:44:20;;;;;;;33.50;28.67;;;22.10;99.90;;;;;;4991382;28;20486;-82
2022/08/27 15:46:49;;;;;;;43.10;32.30;;;22.20;99.90;;;;;;4990497;28;20470;-83
2022/08/27 15:49:16;;;;;;;32.23;27.27;;;22.20;99.90;;;;;;4990577;28;20467;-82
2022/08/27 15:51:45;;;;;;;37.90;28.60;;;22.10;99.90;;;;;;4990293;28;20490;-82
2022/08/27 15:54:12;;;;;;;38.73;30.70;;;22.20;99.90;;;;;;4989059;28;20506;-84
2022/08/27 15:56:39;;;;;;;28.73;25.10;;;22.30;99.90;;;;;;4989555;28;20944;-83
2022/08/27 15:59:08;;;;;;;40.93;29.90;;;22.40;99.90;;;;;;4989723;28;20550;-84
2022/08/27 16:01:37;;;;;;;31.83;26.10;;;22.50;99.90;;;;;;4989049;28;20495;-83
2022/08/27 16:04:05;;;;;;;37.23;26.23;;;22.60;99.90;;;;;;4988870;28;20563;-81
2022/08/27 16:06:33;;;;;;;29.07;25.03;;;22.70;99.90;;;;;;4989648;28;20467;-83
2022/08/27 16:09:00;;;;;;;40.43;27.67;;;22.70;99.90;;;;;;4989978;28;20471;-83
2022/08/27 16:11:27;;;;;;;32.83;27.53;;;22.80;99.90;;;;;;4989774;28;20482;-82
2022/08/27 16:13:55;;;;;;;32.50;27.60;;;22.90;99.90;;;;;;4989843;28;20598;-83
2022/08/27 16:16:25;;;;;;;32.47;25.90;;;23.00;99.90;;;;;;4988346;28;20456;-82
2022/08/27 16:18:52;;;;;;;33.97;26.87;;;23.00;99.90;;;;;;4988224;28;20457;-84
2022/08/27 16:21:20;;;;;;;32.97;27.00;;;23.00;99.90;;;;;;4988958;28;20763;-81
2022/08/27 16:23:47;;;;;;;29.80;23.33;;;23.00;99.90;;;;;;4988441;28;20456;-83
2022/08/27 16:26:15;;;;;;;30.57;25.03;;;23.00;99.90;;;;;;4987645;28;20455;-83
2022/08/27 16:28:43;;;;;;;26.63;23.20;;;23.00;99.90;;;;;;4988733;28;21244;-83
2022/08/27 16:31:11;;;;;;;31.00;24.50;;;23.00;99.90;;;;;;4988501;28;20510;-84
2022/08/27 16:33:41;;;;;;;27.43;24.47;;;23.00;99.90;;;;;;4988380;28;21042;-81
2022/08/27 16:36:09;;;;;;;26.80;23.23;;;23.00;99.90;;;;;;4987983;28;20844;-81
2022/08/27 16:38:36;;;;;;;30.47;23.40;;;23.00;99.90;;;;;;4989008;28;20474;-84
2022/08/27 16:41:04;;;;;;;25.00;20.37;;;23.00;99.90;;;;;;4988633;28;20472;-84
2022/08/27 16:43:31;;;;;;;24.33;20.40;;;23.00;99.90;;;;;;4988393;28;20460;-84
2022/08/27 16:46:01;;;;;;;25.87;18.83;;;22.90;99.90;;;;;;4986408;28;20468;-83
2022/08/27 16:51:20;;;;;;;24.83;21.90;;;22.90;99.90;;;;;;4987734;28;20498;-83
2022/08/27 16:53:49;;;;;;;24.67;21.60;;;22.70;99.90;;;;;;4987556;28;20498;-83
2022/08/27 16:56:17;;;;;;;24.90;21.13;;;22.70;99.90;;;;;;4986886;28;20475;-83